Time;durP1;ratioP1;P1;durP2;ratioP2;P2;SDS_P1;SDS_P2;PMS_P1;PMS_P2;Temp;Humidity;BMP_temperature;BMP_pressure;BME280_temperature;BME280_humidity;BME280_pressure;Samples;Min_cycle;Max_cycle;Signal;HPM_P1;HPM_P2
2023/07/22 00:00:27;;;;;;;0.00;0.00;;;;;;;;;;1749419;28;20263;-74
2023/07/22 00:01:18;;;;;;;0.00;0.00;;;;;;;;;;1751576;28;20189;-74
2023/07/22 00:02:10;;;;;;;0.00;0.00;;;;;;;;;;1748127;28;20208;-74
2023/07/22 00:03:01;;;;;;;0.00;0.00;;;;;;;;;;1752545;28;20313;-74
2023/07/22 00:03:52;;;;;;;0.00;0.00;;;;;;;;;;1751962;28;20206;-74
2023/07/22 00:04:44;;;;;;;0.00;0.00;;;;;;;;;;1752656;28;20513;-74
2023/07/22 00:05:35;;;;;;;0.00;0.00;;;;;;;;;;1750079;28;20731;-74
2023/07/22 00:06:27;;;;;;;0.00;0.00;;;;;;;;;;1752735;28;20190;-74
2023/07/22 00:07:19;;;;;;;0.00;0.00;;;;;;;;;;1751657;28;20302;-74
2023/07/22 00:08:10;;;;;;;0.00;0.00;;;;;;;;;;1752391;28;20205;-73
2023/07/22 00:09:01;;;;;;;0.00;0.00;;;;;;;;;;1752388;28;20208;-74
2023/07/22 00:09:53;;;;;;;0.00;0.00;;;;;;;;;;1752505;28;20279;-74
2023/07/22 00:10:44;;;;;;;0.00;0.00;;;;;;;;;;1750941;28;20682;-74
2023/07/22 00:11:35;;;;;;;0.00;0.00;;;;;;;;;;1752475;28;20197;-74
2023/07/22 00:12:29;;;;;;;0.00;0.00;;;;;;;;;;1751911;28;20528;-74
2023/07/22 00:13:20;;;;;;;0.00;0.00;;;;;;;;;;1752629;28;20275;-74
2023/07/22 00:14:12;;;;;;;0.00;0.00;;;;;;;;;;1751824;28;20218;-74
2023/07/22 00:15:06;;;;;;;0.00;0.00;;;;;;;;;;1752789;28;20349;-74
2023/07/22 00:15:59;;;;;;;0.00;0.00;;;;;;;;;;1749776;28;20236;-73
2023/07/22 00:16:50;;;;;;;0.00;0.00;;;;;;;;;;1752544;28;20221;-74
2023/07/22 00:17:43;;;;;;;0.00;0.00;;;;;;;;;;1752386;28;20206;-73
2023/07/22 00:18:34;;;;;;;0.00;0.00;;;;;;;;;;1751595;28;20220;-74
2023/07/22 00:19:25;;;;;;;0.00;0.00;;;;;;;;;;1752038;28;20360;-74
2023/07/22 00:20:19;;;;;;;0.00;0.00;;;;;;;;;;1750030;28;20325;-75
2023/07/22 00:21:10;;;;;;;0.00;0.00;;;;;;;;;;1752516;28;20209;-75
2023/07/22 00:22:01;;;;;;;0.00;0.00;;;;;;;;;;1752214;28;20209;-75
2023/07/22 00:22:53;;;;;;;0.00;0.00;;;;;;;;;;1752499;28;20497;-75
2023/07/22 00:23:46;;;;;;;0.00;0.00;;;;;;;;;;1751571;28;22035;-75
2023/07/22 00:24:38;;;;;;;0.00;0.00;;;;;;;;;;1752334;28;20883;-74
2023/07/22 00:25:29;;;;;;;0.00;0.00;;;;;;;;;;1750443;28;20595;-74
2023/07/22 00:26:21;;;;;;;0.00;0.00;;;;;;;;;;1752425;28;20325;-74
2023/07/22 00:27:12;;;;;;;0.00;0.00;;;;;;;;;;1751868;28;20209;-74
2023/07/22 00:28:04;;;;;;;0.00;0.00;;;;;;;;;;1752475;28;20259;-73
2023/07/22 00:28:56;;;;;;;0.00;0.00;;;;;;;;;;1752097;28;20233;-73
2023/07/22 00:29:48;;;;;;;0.00;0.00;;;;;;;;;;1752461;28;20225;-74
2023/07/22 00:30:40;;;;;;;0.00;0.00;;;;;;;;;;1750537;28;20237;-73
2023/07/22 00:31:31;;;;;;;0.00;0.00;;;;;;;;;;1752478;28;20221;-74
2023/07/22 00:32:23;;;;;;;0.00;0.00;;;;;;;;;;1751941;28;20234;-73
2023/07/22 00:33:14;;;;;;;0.00;0.00;;;;;;;;;;1752277;28;20722;-73
2023/07/22 00:34:05;;;;;;;0.00;0.00;;;;;;;;;;1751645;28;20211;-73
2023/07/22 00:34:57;;;;;;;0.00;0.00;;;;;;;;;;1752621;28;20198;-73
2023/07/22 00:35:50;;;;;;;0.00;0.00;;;;;;;;;;1749418;28;20352;-73
2023/07/22 00:36:41;;;;;;;0.00;0.00;;;;;;;;;;1752482;28;20768;-72
2023/07/22 00:37:33;;;;;;;0.00;0.00;;;;;;;;;;1750918;28;20251;-72
2023/07/22 00:38:24;;;;;;;0.00;0.00;;;;;;;;;;1752464;28;20292;-72
2023/07/22 00:39:15;;;;;;;0.00;0.00;;;;;;;;;;1751433;28;20539;-72
2023/07/22 00:40:11;;;;;;;0.00;0.00;;;;;;;;;;1752512;28;20307;-72
2023/07/22 00:41:04;;;;;;;0.00;0.00;;;;;;;;;;1749921;28;20269;-73
2023/07/22 00:41:56;;;;;;;0.00;0.00;;;;;;;;;;1751928;28;20201;-73
2023/07/22 00:42:47;;;;;;;0.00;0.00;;;;;;;;;;1752444;28;20285;-73
2023/07/22 00:43:39;;;;;;;0.00;0.00;;;;;;;;;;1751773;28;20217;-73
2023/07/22 00:44:32;;;;;;;0.00;0.00;;;;;;;;;;1752495;28;20297;-73
2023/07/22 00:45:23;;;;;;;0.00;0.00;;;;;;;;;;1748045;28;20189;-74
2023/07/22 00:46:14;;;;;;;0.00;0.00;;;;;;;;;;1745567;28;20202;-74
2023/07/22 00:47:06;;;;;;;0.00;0.00;;;;;;;;;;1744920;28;20575;-73
2023/07/22 00:47:57;;;;;;;0.00;0.00;;;;;;;;;;1745802;28;20696;-73
2023/07/22 00:48:50;;;;;;;0.00;0.00;;;;;;;;;;1742320;28;20971;-73
2023/07/22 00:49:41;;;;;;;0.00;0.00;;;;;;;;;;1745188;28;20655;-73
2023/07/22 00:50:33;;;;;;;0.00;0.00;;;;;;;;;;1743370;28;20230;-72
2023/07/22 00:51:25;;;;;;;0.00;0.00;;;;;;;;;;1746391;28;20667;-73
2023/07/22 00:52:17;;;;;;;0.00;0.00;;;;;;;;;;1746537;28;20802;-73
2023/07/22 00:53:08;;;;;;;0.00;0.00;;;;;;;;;;1746754;28;20618;-73
2023/07/22 00:54:00;;;;;;;0.00;0.00;;;;;;;;;;1746143;28;20190;-73
2023/07/22 00:54:51;;;;;;;0.00;0.00;;;;;;;;;;1747067;28;20202;-73
2023/07/22 00:55:43;;;;;;;0.00;0.00;;;;;;;;;;1744728;28;20229;-74
2023/07/22 00:56:37;;;;;;;0.00;0.00;;;;;;;;;;1746640;28;20214;-74
2023/07/22 00:57:28;;;;;;;0.00;0.00;;;;;;;;;;1746298;28;20587;-74
2023/07/22 00:58:21;;;;;;;0.00;0.00;;;;;;;;;;1744745;28;20313;-74
2023/07/22 00:59:14;;;;;;;0.00;0.00;;;;;;;;;;1745956;28;20234;-74
2023/07/22 01:00:06;;;;;;;0.00;0.00;;;;;;;;;;1746761;28;20407;-74
2023/07/22 01:00:58;;;;;;;0.00;0.00;;;;;;;;;;1743874;28;20241;-73
2023/07/22 01:01:50;;;;;;;0.00;0.00;;;;;;;;;;1744530;28;20289;-73
2023/07/22 01:02:41;;;;;;;0.00;0.00;;;;;;;;;;1746648;28;20205;-73
2023/07/22 01:03:33;;;;;;;0.00;0.00;;;;;;;;;;1746382;28;20287;-73
2023/07/22 01:04:25;;;;;;;0.00;0.00;;;;;;;;;;1746381;28;20210;-72
2023/07/22 01:05:16;;;;;;;0.00;0.00;;;;;;;;;;1744864;28;20263;-72
2023/07/22 01:06:09;;;;;;;0.00;0.00;;;;;;;;;;1746610;28;20900;-73
2023/07/22 01:07:00;;;;;;;0.00;0.00;;;;;;;;;;1746170;28;20206;-73
2023/07/22 01:07:51;;;;;;;0.00;0.00;;;;;;;;;;1747035;28;20202;-73
2023/07/22 01:08:43;;;;;;;0.00;0.00;;;;;;;;;;1745878;28;20380;-73
2023/07/22 01:09:35;;;;;;;0.00;0.00;;;;;;;;;;1746719;28;20234;-73
2023/07/22 01:10:28;;;;;;;0.00;0.00;;;;;;;;;;1744286;28;20663;-74
2023/07/22 01:11:19;;;;;;;0.00;0.00;;;;;;;;;;1746624;28;20298;-74
2023/07/22 01:12:13;;;;;;;0.00;0.00;;;;;;;;;;1749580;28;20210;-74
2023/07/22 01:13:04;;;;;;;0.00;0.00;;;;;;;;;;1746756;28;20241;-74
2023/07/22 01:13:59;;;;;;;0.00;0.00;;;;;;;;;;1746528;28;20582;-74
2023/07/22 01:14:51;;;;;;;0.00;0.00;;;;;;;;;;1746472;28;20669;-74
2023/07/22 01:15:44;;;;;;;0.00;0.00;;;;;;;;;;1743923;28;20233;-73
2023/07/22 01:16:35;;;;;;;0.00;0.00;;;;;;;;;;1746453;28;20367;-73
2023/07/22 01:17:27;;;;;;;0.10;0.10;;;;;;;;;;1746054;28;20277;-72
2023/07/22 01:18:19;;;;;;;0.00;0.00;;;;;;;;;;1746606;28;20206;-72
2023/07/22 01:19:11;;;;;;;0.00;0.00;;;;;;;;;;1745829;28;20802;-73
2023/07/22 01:20:05;;;;;;;0.00;0.00;;;;;;;;;;1746711;28;20344;-73
2023/07/22 01:20:58;;;;;;;0.00;0.00;;;;;;;;;;1740439;28;20736;-73
2023/07/22 01:21:49;;;;;;;0.00;0.00;;;;;;;;;;1746519;28;20377;-73
2023/07/22 01:22:42;;;;;;;0.00;0.00;;;;;;;;;;1746348;28;20222;-73
2023/07/22 01:23:36;;;;;;;0.00;0.00;;;;;;;;;;1746425;28;20284;-73
2023/07/22 01:24:27;;;;;;;0.00;0.00;;;;;;;;;;1746435;28;20226;-73
2023/07/22 01:25:21;;;;;;;0.00;0.00;;;;;;;;;;1744453;28;20253;-72
2023/07/22 01:26:12;;;;;;;0.00;0.00;;;;;;;;;;1746575;28;20207;-73
2023/07/22 01:27:08;;;;;;;0.00;0.00;;;;;;;;;;1745912;28;20263;-72
2023/07/22 01:27:59;;;;;;;0.00;0.00;;;;;;;;;;1746723;28;20329;-72
2023/07/22 01:28:51;;;;;;;0.00;0.00;;;;;;;;;;1746111;28;20564;-72
2023/07/22 01:29:43;;;;;;;0.00;0.00;;;;;;;;;;1746470;28;20298;-72
2023/07/22 01:30:34;;;;;;;0.00;0.00;;;;;;;;;;1744612;28;20233;-72
2023/07/22 01:31:26;;;;;;;0.00;0.00;;;;;;;;;;1746524;28;20532;-72
2023/07/22 01:32:17;;;;;;;0.00;0.00;;;;;;;;;;1746111;28;20285;-72
2023/07/22 01:33:09;;;;;;;0.00;0.00;;;;;;;;;;1746404;28;20414;-71
2023/07/22 01:34:01;;;;;;;0.00;0.00;;;;;;;;;;1746381;28;20231;-71
2023/07/22 01:34:52;;;;;;;0.10;0.10;;;;;;;;;;1746750;28;20321;-70
2023/07/22 01:35:44;;;;;;;0.00;0.00;;;;;;;;;;1744012;28;20776;-72
2023/07/22 01:36:35;;;;;;;0.00;0.00;;;;;;;;;;1746569;28;20321;-74
2023/07/22 01:37:26;;;;;;;0.00;0.00;;;;;;;;;;1746005;28;20842;-75
2023/07/22 01:38:18;;;;;;;0.10;0.10;;;;;;;;;;1746643;28;20198;-75
2023/07/22 01:39:10;;;;;;;0.00;0.00;;;;;;;;;;1746067;28;20667;-75
2023/07/22 01:40:11;;;;;;;0.00;0.00;;;;;;;;;;1746758;28;20214;-75
2023/07/22 01:41:03;;;;;;;0.00;0.00;;;;;;;;;;1745213;28;20231;-74
2023/07/22 01:41:54;;;;;;;0.00;0.00;;;;;;;;;;1744342;28;20644;-74
2023/07/22 01:42:46;;;;;;;0.00;0.00;;;;;;;;;;1746755;28;20217;-75
2023/07/22 01:43:37;;;;;;;0.00;0.00;;;;;;;;;;1746188;28;20659;-74
2023/07/22 01:44:29;;;;;;;0.00;0.00;;;;;;;;;;1746798;28;20225;-74
2023/07/22 01:45:20;;;;;;;0.00;0.00;;;;;;;;;;1746377;28;20630;-74
2023/07/22 01:46:12;;;;;;;0.00;0.00;;;;;;;;;;1753700;28;20233;-74
2023/07/22 01:47:04;;;;;;;0.00;0.00;;;;;;;;;;1752378;28;20489;-74
2023/07/22 01:47:55;;;;;;;0.00;0.00;;;;;;;;;;1750995;28;20328;-74
2023/07/22 01:48:47;;;;;;;0.00;0.00;;;;;;;;;;1751731;28;20288;-73
2023/07/22 01:49:38;;;;;;;0.00;0.00;;;;;;;;;;1753515;28;20278;-73
2023/07/22 01:50:30;;;;;;;0.00;0.00;;;;;;;;;;1750988;28;20306;-75
2023/07/22 01:51:21;;;;;;;0.00;0.00;;;;;;;;;;1753783;28;20225;-74
2023/07/22 01:52:13;;;;;;;0.00;0.00;;;;;;;;;;1752498;28;20292;-74
2023/07/22 01:53:05;;;;;;;0.00;0.00;;;;;;;;;;1753743;28;20546;-74
2023/07/22 01:53:57;;;;;;;0.00;0.00;;;;;;;;;;1752657;28;20193;-74
2023/07/22 01:54:50;;;;;;;0.00;0.00;;;;;;;;;;1753481;28;20651;-74
2023/07/22 01:55:42;;;;;;;0.00;0.00;;;;;;;;;;1751145;28;20264;-74
2023/07/22 01:56:33;;;;;;;0.00;0.00;;;;;;;;;;1753152;28;20563;-74
2023/07/22 01:57:24;;;;;;;0.00;0.00;;;;;;;;;;1752608;28;20205;-74
2023/07/22 01:58:16;;;;;;;0.00;0.00;;;;;;;;;;1751650;28;20209;-74
2023/07/22 01:59:08;;;;;;;0.00;0.00;;;;;;;;;;1751418;28;20745;-74
2023/07/22 01:59:59;;;;;;;0.00;0.00;;;;;;;;;;1753313;28;20296;-75
2023/07/22 02:00:52;;;;;;;0.00;0.00;;;;;;;;;;1745082;28;20238;-75
2023/07/22 02:01:43;;;;;;;0.00;0.00;;;;;;;;;;1742257;28;20588;-74
2023/07/22 02:02:34;;;;;;;0.00;0.00;;;;;;;;;;1743970;28;20203;-74
2023/07/22 02:03:27;;;;;;;0.00;0.00;;;;;;;;;;1746303;28;20209;-75
2023/07/22 02:04:18;;;;;;;0.00;0.00;;;;;;;;;;1746038;28;20210;-75
2023/07/22 02:05:10;;;;;;;0.00;0.00;;;;;;;;;;1746430;28;20298;-75
2023/07/22 02:06:02;;;;;;;0.00;0.00;;;;;;;;;;1750042;28;20256;-73
2023/07/22 02:06:53;;;;;;;0.00;0.00;;;;;;;;;;1745809;28;20217;-73
2023/07/22 02:07:45;;;;;;;0.00;0.00;;;;;;;;;;1746242;28;20195;-73
2023/07/22 02:08:37;;;;;;;0.00;0.00;;;;;;;;;;1745633;28;20240;-73
2023/07/22 02:09:28;;;;;;;0.00;0.00;;;;;;;;;;1746141;28;20285;-73
2023/07/22 02:10:21;;;;;;;0.00;0.00;;;;;;;;;;1744367;28;20209;-73
2023/07/22 02:11:12;;;;;;;0.00;0.00;;;;;;;;;;1746152;28;20209;-74
2023/07/22 02:12:04;;;;;;;0.00;0.00;;;;;;;;;;1745899;28;20306;-73
2023/07/22 02:12:56;;;;;;;0.00;0.00;;;;;;;;;;1746280;28;20198;-73
2023/07/22 02:13:47;;;;;;;0.00;0.00;;;;;;;;;;1745873;28;20242;-73
2023/07/22 02:14:38;;;;;;;0.00;0.00;;;;;;;;;;1746220;28;20893;-73
2023/07/22 02:15:30;;;;;;;0.00;0.00;;;;;;;;;;1744830;28;20493;-74
2023/07/22 02:16:21;;;;;;;0.00;0.00;;;;;;;;;;1746171;28;20319;-74
2023/07/22 02:17:12;;;;;;;0.00;0.00;;;;;;;;;;1745843;28;20220;-74
2023/07/22 02:18:04;;;;;;;0.00;0.00;;;;;;;;;;1746549;28;20211;-74
2023/07/22 02:18:55;;;;;;;0.00;0.00;;;;;;;;;;1742737;28;20325;-74
2023/07/22 02:19:46;;;;;;;0.00;0.00;;;;;;;;;;1745987;28;20285;-74
2023/07/22 02:20:39;;;;;;;0.00;0.00;;;;;;;;;;1747004;28;20416;-73
2023/07/22 02:21:30;;;;;;;0.00;0.00;;;;;;;;;;1753052;28;20255;-73
2023/07/22 02:22:21;;;;;;;0.00;0.00;;;;;;;;;;1751780;28;20692;-72
2023/07/22 02:23:13;;;;;;;0.00;0.00;;;;;;;;;;1753017;28;20248;-72
2023/07/22 02:24:04;;;;;;;0.00;0.00;;;;;;;;;;1751965;28;20652;-72
2023/07/22 02:24:56;;;;;;;0.00;0.00;;;;;;;;;;1753148;28;20201;-73
2023/07/22 02:25:50;;;;;;;0.00;0.00;;;;;;;;;;1747763;28;20751;-74
2023/07/22 02:26:42;;;;;;;0.00;0.00;;;;;;;;;;1753219;28;20351;-74
2023/07/22 02:27:34;;;;;;;0.00;0.00;;;;;;;;;;1751255;28;20289;-74
2023/07/22 02:28:26;;;;;;;0.00;0.00;;;;;;;;;;1753073;28;20212;-74
2023/07/22 02:29:18;;;;;;;0.00;0.00;;;;;;;;;;1751505;28;20626;-74
2023/07/22 02:30:10;;;;;;;0.00;0.00;;;;;;;;;;1752944;28;20267;-74
2023/07/22 02:31:04;;;;;;;0.00;0.00;;;;;;;;;;1750764;28;20322;-73
2023/07/22 02:31:55;;;;;;;0.00;0.00;;;;;;;;;;1752133;28;20229;-73
2023/07/22 02:32:46;;;;;;;0.00;0.00;;;;;;;;;;1753053;28;20258;-74
2023/07/22 02:33:38;;;;;;;0.00;0.00;;;;;;;;;;1751671;28;20193;-74
2023/07/22 02:34:29;;;;;;;0.00;0.00;;;;;;;;;;1752813;28;20229;-73
2023/07/22 02:35:21;;;;;;;0.00;0.00;;;;;;;;;;1750002;28;20303;-74
2023/07/22 02:36:12;;;;;;;0.00;0.00;;;;;;;;;;1752884;28;20305;-73
2023/07/22 02:37:03;;;;;;;0.00;0.00;;;;;;;;;;1752051;28;20215;-74
2023/07/22 02:37:55;;;;;;;0.00;0.00;;;;;;;;;;1752968;28;20206;-74
2023/07/22 02:38:46;;;;;;;0.00;0.00;;;;;;;;;;1751906;28;20329;-74
2023/07/22 02:39:37;;;;;;;0.00;0.00;;;;;;;;;;1752779;28;20692;-74
2023/07/22 02:40:29;;;;;;;0.00;0.00;;;;;;;;;;1749718;28;20226;-74
2023/07/22 02:41:21;;;;;;;0.00;0.00;;;;;;;;;;1753053;28;20252;-73
2023/07/22 02:42:13;;;;;;;0.00;0.00;;;;;;;;;;1748329;28;20202;-73
2023/07/22 02:43:05;;;;;;;0.00;0.00;;;;;;;;;;1753272;28;20308;-73
2023/07/22 02:43:57;;;;;;;0.00;0.00;;;;;;;;;;1751332;28;20297;-73
2023/07/22 02:44:48;;;;;;;0.00;0.00;;;;;;;;;;1752555;28;20204;-73
2023/07/22 02:45:40;;;;;;;0.00;0.00;;;;;;;;;;1749505;28;20713;-73
2023/07/22 02:46:31;;;;;;;0.00;0.00;;;;;;;;;;1749387;28;20293;-74
2023/07/22 02:47:23;;;;;;;0.00;0.00;;;;;;;;;;1752271;28;20320;-74
2023/07/22 02:48:14;;;;;;;0.00;0.00;;;;;;;;;;1752740;28;20745;-74
2023/07/22 02:49:06;;;;;;;0.00;0.00;;;;;;;;;;1750994;28;20254;-74
2023/07/22 02:49:57;;;;;;;0.00;0.00;;;;;;;;;;1752650;28;20239;-74
2023/07/22 02:50:49;;;;;;;0.00;0.00;;;;;;;;;;1749573;28;20256;-74
2023/07/22 02:51:40;;;;;;;0.00;0.00;;;;;;;;;;1753053;28;20197;-74
2023/07/22 02:52:32;;;;;;;0.00;0.00;;;;;;;;;;1751733;28;20530;-74
2023/07/22 02:53:23;;;;;;;0.00;0.00;;;;;;;;;;1753049;28;20358;-74
2023/07/22 02:54:16;;;;;;;0.00;0.00;;;;;;;;;;1751398;28;20623;-73
2023/07/22 02:55:10;;;;;;;0.00;0.00;;;;;;;;;;1753230;28;20220;-74
2023/07/22 02:56:01;;;;;;;0.00;0.00;;;;;;;;;;1751418;28;20639;-73
2023/07/22 02:56:55;;;;;;;0.00;0.00;;;;;;;;;;1751726;28;20193;-74
2023/07/22 02:57:46;;;;;;;0.00;0.00;;;;;;;;;;1752788;28;20362;-74
2023/07/22 02:58:37;;;;;;;0.00;0.00;;;;;;;;;;1751185;28;20202;-73
2023/07/22 02:59:29;;;;;;;0.00;0.00;;;;;;;;;;1749212;28;20225;-73
2023/07/22 03:00:23;;;;;;;0.00;0.00;;;;;;;;;;1748618;28;20247;-73
2023/07/22 03:01:15;;;;;;;0.00;0.00;;;;;;;;;;1749769;28;20279;-73
2023/07/22 03:02:06;;;;;;;0.00;0.00;;;;;;;;;;1752084;28;21021;-73
2023/07/22 03:03:00;;;;;;;0.00;0.00;;;;;;;;;;1752672;28;20589;-73
2023/07/22 03:03:52;;;;;;;0.00;0.00;;;;;;;;;;1751582;28;20359;-73
2023/07/22 03:04:43;;;;;;;0.00;0.00;;;;;;;;;;1752321;28;20206;-73
2023/07/22 03:05:35;;;;;;;0.00;0.00;;;;;;;;;;1749331;28;20261;-74
2023/07/22 03:06:28;;;;;;;0.00;0.00;;;;;;;;;;1752976;28;20302;-74
2023/07/22 03:07:20;;;;;;;0.00;0.00;;;;;;;;;;1751979;28;20296;-74
2023/07/22 03:08:11;;;;;;;0.00;0.00;;;;;;;;;;1752957;28;20205;-74
2023/07/22 03:09:04;;;;;;;0.00;0.00;;;;;;;;;;1751961;28;20205;-74
2023/07/22 03:09:55;;;;;;;0.00;0.00;;;;;;;;;;1752727;28;20202;-74
2023/07/22 03:10:48;;;;;;;0.00;0.00;;;;;;;;;;1750009;28;20229;-73
2023/07/22 03:11:39;;;;;;;0.00;0.00;;;;;;;;;;1752585;28;20206;-73
2023/07/22 03:12:31;;;;;;;0.00;0.00;;;;;;;;;;1751480;28;20312;-73
2023/07/22 03:13:23;;;;;;;0.00;0.00;;;;;;;;;;1752816;28;20617;-73
2023/07/22 03:14:14;;;;;;;0.00;0.00;;;;;;;;;;1751401;28;20296;-73
2023/07/22 03:15:08;;;;;;;0.00;0.00;;;;;;;;;;1753022;28;20296;-73
2023/07/22 03:15:59;;;;;;;0.00;0.00;;;;;;;;;;1745557;28;20234;-74
2023/07/22 03:16:52;;;;;;;0.00;0.00;;;;;;;;;;1751426;28;20274;-74
2023/07/22 03:17:43;;;;;;;0.00;0.00;;;;;;;;;;1752572;28;20209;-74
2023/07/22 03:18:35;;;;;;;0.00;0.00;;;;;;;;;;1752076;28;20357;-74
2023/07/22 03:19:26;;;;;;;0.00;0.00;;;;;;;;;;1752094;28;20905;-74
2023/07/22 03:20:19;;;;;;;0.00;0.00;;;;;;;;;;1750345;28;20301;-74
2023/07/22 03:21:11;;;;;;;0.00;0.00;;;;;;;;;;1752863;28;20614;-74
2023/07/22 03:22:02;;;;;;;0.00;0.00;;;;;;;;;;1746727;28;20229;-74
2023/07/22 03:22:55;;;;;;;0.00;0.00;;;;;;;;;;1752783;28;20206;-74
2023/07/22 03:23:46;;;;;;;0.00;0.00;;;;;;;;;;1751928;28;20210;-73
2023/07/22 03:24:38;;;;;;;0.00;0.00;;;;;;;;;;1752840;28;20692;-74
2023/07/22 03:25:29;;;;;;;0.00;0.00;;;;;;;;;;1749936;28;20338;-74
2023/07/22 03:26:21;;;;;;;0.00;0.00;;;;;;;;;;1752761;28;20335;-74
2023/07/22 03:27:12;;;;;;;0.00;0.00;;;;;;;;;;1750960;28;20237;-73
2023/07/22 03:28:06;;;;;;;0.00;0.00;;;;;;;;;;1747623;28;20233;-74
2023/07/22 03:28:57;;;;;;;0.00;0.00;;;;;;;;;;1751631;28;20631;-74
2023/07/22 03:29:48;;;;;;;0.00;0.00;;;;;;;;;;1752387;28;20189;-73
2023/07/22 03:30:40;;;;;;;0.00;0.00;;;;;;;;;;1750481;28;20233;-74
2023/07/22 03:31:31;;;;;;;0.00;0.00;;;;;;;;;;1752880;28;20225;-74
2023/07/22 03:32:23;;;;;;;0.00;0.00;;;;;;;;;;1751224;28;20221;-74
2023/07/22 03:33:15;;;;;;;0.00;0.00;;;;;;;;;;1752866;28;20292;-74
2023/07/22 03:34:06;;;;;;;0.00;0.00;;;;;;;;;;1751899;28;20217;-74
2023/07/22 03:34:57;;;;;;;0.00;0.00;;;;;;;;;;1752804;28;20206;-74
2023/07/22 03:35:49;;;;;;;0.00;0.00;;;;;;;;;;1746483;28;20226;-74
2023/07/22 03:36:41;;;;;;;0.00;0.00;;;;;;;;;;1752808;28;20232;-74
2023/07/22 03:37:32;;;;;;;0.00;0.00;;;;;;;;;;1751439;28;20296;-74
2023/07/22 03:38:24;;;;;;;0.00;0.00;;;;;;;;;;1752814;28;20205;-74
2023/07/22 03:39:16;;;;;;;0.00;0.00;;;;;;;;;;1751181;28;20205;-74
2023/07/22 03:40:11;;;;;;;0.00;0.00;;;;;;;;;;1753119;28;20248;-74
2023/07/22 03:41:03;;;;;;;0.00;0.00;;;;;;;;;;1743652;28;20238;-73
2023/07/22 03:41:54;;;;;;;0.00;0.00;;;;;;;;;;1744962;28;20281;-73
2023/07/22 03:42:45;;;;;;;0.00;0.00;;;;;;;;;;1745192;28;20964;-74
2023/07/22 03:43:38;;;;;;;0.00;0.00;;;;;;;;;;1744657;28;20321;-74
2023/07/22 03:44:30;;;;;;;0.00;0.00;;;;;;;;;;1745846;28;20370;-74
2023/07/22 03:45:21;;;;;;;0.00;0.00;;;;;;;;;;1744214;28;20202;-75
2023/07/22 03:46:13;;;;;;;0.00;0.00;;;;;;;;;;1746042;28;20202;-75
2023/07/22 03:47:05;;;;;;;0.00;0.00;;;;;;;;;;1745483;28;20206;-75
2023/07/22 03:47:58;;;;;;;0.00;0.00;;;;;;;;;;1746139;28;20202;-74
2023/07/22 03:48:49;;;;;;;0.00;0.00;;;;;;;;;;1745159;28;20245;-74
2023/07/22 03:49:41;;;;;;;0.00;0.00;;;;;;;;;;1746057;28;20202;-74
2023/07/22 03:50:32;;;;;;;0.00;0.00;;;;;;;;;;1741363;28;20234;-74
2023/07/22 03:51:24;;;;;;;0.00;0.00;;;;;;;;;;1746099;28;20195;-74
2023/07/22 03:52:18;;;;;;;0.00;0.00;;;;;;;;;;1745978;28;20565;-74
2023/07/22 03:53:09;;;;;;;0.00;0.00;;;;;;;;;;1746031;28;20202;-74
2023/07/22 03:54:01;;;;;;;0.00;0.00;;;;;;;;;;1745786;28;20285;-74
2023/07/22 03:54:52;;;;;;;0.00;0.00;;;;;;;;;;1745756;28;20240;-73
2023/07/22 03:55:44;;;;;;;0.00;0.00;;;;;;;;;;1744025;28;20706;-73
2023/07/22 03:56:35;;;;;;;0.00;0.00;;;;;;;;;;1745870;28;20230;-74
2023/07/22 03:57:26;;;;;;;0.00;0.00;;;;;;;;;;1745092;28;20213;-74
2023/07/22 03:58:18;;;;;;;0.00;0.00;;;;;;;;;;1746034;28;20210;-73
2023/07/22 03:59:11;;;;;;;0.00;0.00;;;;;;;;;;1745338;28;20344;-73
2023/07/22 04:00:09;;;;;;;0.00;0.00;;;;;;;;;;1745929;28;20198;-73
2023/07/22 04:01:00;;;;;;;0.00;0.00;;;;;;;;;;1743409;28;20234;-74
2023/07/22 04:01:52;;;;;;;0.00;0.00;;;;;;;;;;1745018;28;20702;-74
2023/07/22 04:02:43;;;;;;;0.00;0.00;;;;;;;;;;1745661;28;20280;-74
2023/07/22 04:03:35;;;;;;;0.00;0.00;;;;;;;;;;1744711;28;20198;-74
2023/07/22 04:04:26;;;;;;;0.00;0.00;;;;;;;;;;1745396;28;20289;-74
2023/07/22 04:05:18;;;;;;;0.00;0.00;;;;;;;;;;1744133;28;20217;-73
2023/07/22 04:06:09;;;;;;;0.00;0.00;;;;;;;;;;1745295;28;20584;-73
2023/07/22 04:07:00;;;;;;;0.00;0.00;;;;;;;;;;1745053;28;20198;-73
2023/07/22 04:07:52;;;;;;;0.00;0.00;;;;;;;;;;1745363;28;20608;-73
2023/07/22 04:08:43;;;;;;;0.00;0.00;;;;;;;;;;1745032;28;20281;-74
2023/07/22 04:09:34;;;;;;;0.00;0.00;;;;;;;;;;1745406;28;20198;-74
2023/07/22 04:10:26;;;;;;;0.00;0.00;;;;;;;;;;1743524;28;20682;-74
2023/07/22 04:11:18;;;;;;;0.00;0.00;;;;;;;;;;1745570;28;20321;-74
2023/07/22 04:12:09;;;;;;;0.00;0.00;;;;;;;;;;1745028;28;20234;-73
2023/07/22 04:13:01;;;;;;;0.00;0.00;;;;;;;;;;1745598;28;20198;-73
2023/07/22 04:13:52;;;;;;;0.00;0.00;;;;;;;;;;1742877;28;20242;-73
2023/07/22 04:14:44;;;;;;;0.00;0.00;;;;;;;;;;1741395;28;20535;-74
2023/07/22 04:15:36;;;;;;;0.00;0.00;;;;;;;;;;1740239;28;20761;-73
2023/07/22 04:16:27;;;;;;;0.00;0.00;;;;;;;;;;1744471;28;20325;-74
2023/07/22 04:17:18;;;;;;;0.00;0.00;;;;;;;;;;1745256;28;20236;-74
2023/07/22 04:18:10;;;;;;;0.00;0.00;;;;;;;;;;1741384;28;20238;-74
2023/07/22 04:19:01;;;;;;;0.00;0.00;;;;;;;;;;1744660;28;20226;-74
2023/07/22 04:19:53;;;;;;;0.00;0.00;;;;;;;;;;1745194;28;20298;-74
2023/07/22 04:20:45;;;;;;;0.00;0.00;;;;;;;;;;1743601;28;20226;-73
2023/07/22 04:21:36;;;;;;;0.00;0.00;;;;;;;;;;1745570;28;20238;-73
2023/07/22 04:22:28;;;;;;;0.00;0.00;;;;;;;;;;1744358;28;20660;-74
2023/07/22 04:23:19;;;;;;;0.00;0.00;;;;;;;;;;1745641;28;20399;-73
2023/07/22 04:24:11;;;;;;;0.00;0.00;;;;;;;;;;1745119;28;20199;-73
2023/07/22 04:25:03;;;;;;;0.00;0.00;;;;;;;;;;1745966;28;20218;-73
2023/07/22 04:25:54;;;;;;;0.00;0.00;;;;;;;;;;1743321;28;20268;-73
2023/07/22 04:26:46;;;;;;;0.00;0.00;;;;;;;;;;1746919;28;20609;-73
2023/07/22 04:27:37;;;;;;;0.00;0.00;;;;;;;;;;1746706;28;20622;-73
2023/07/22 04:28:29;;;;;;;0.00;0.00;;;;;;;;;;1746544;28;20226;-73
2023/07/22 04:29:21;;;;;;;0.00;0.00;;;;;;;;;;1746702;28;20321;-73
2023/07/22 04:30:20;;;;;;;0.00;0.00;;;;;;;;;;1745979;28;20238;-75
2023/07/22 04:31:12;;;;;;;0.00;0.00;;;;;;;;;;1742914;28;20244;-74
2023/07/22 04:32:03;;;;;;;0.00;0.00;;;;;;;;;;1744493;28;20560;-75
2023/07/22 04:32:55;;;;;;;0.00;0.00;;;;;;;;;;1746814;28;20245;-75
2023/07/22 04:33:46;;;;;;;0.00;0.00;;;;;;;;;;1746081;28;20234;-75
2023/07/22 04:34:37;;;;;;;0.00;0.00;;;;;;;;;;1746539;28;20226;-75
2023/07/22 04:35:31;;;;;;;0.00;0.00;;;;;;;;;;1744909;28;20206;-75
2023/07/22 04:36:22;;;;;;;0.00;0.00;;;;;;;;;;1746650;28;20281;-75
2023/07/22 04:37:16;;;;;;;0.00;0.00;;;;;;;;;;1746555;28;20216;-74
2023/07/22 04:38:07;;;;;;;0.00;0.00;;;;;;;;;;1746372;28;20866;-75
2023/07/22 04:38:58;;;;;;;0.00;0.00;;;;;;;;;;1746140;28;20237;-75
2023/07/22 04:39:50;;;;;;;0.00;0.00;;;;;;;;;;1746537;28;20202;-74
2023/07/22 04:40:43;;;;;;;0.00;0.00;;;;;;;;;;1745986;28;20316;-75
2023/07/22 04:41:34;;;;;;;0.00;0.00;;;;;;;;;;1753559;28;20647;-75
2023/07/22 04:42:27;;;;;;;0.00;0.00;;;;;;;;;;1752596;28;20428;-75
2023/07/22 04:43:18;;;;;;;0.00;0.00;;;;;;;;;;1753771;28;20210;-75
2023/07/22 04:44:10;;;;;;;0.00;0.00;;;;;;;;;;1752864;28;20201;-75
2023/07/22 04:45:06;;;;;;;0.00;0.00;;;;;;;;;;1753712;28;20300;-75
2023/07/22 04:45:59;;;;;;;0.00;0.00;;;;;;;;;;1750924;28;20225;-75
2023/07/22 04:46:50;;;;;;;0.00;0.00;;;;;;;;;;1753302;28;20217;-75
2023/07/22 04:47:44;;;;;;;0.00;0.00;;;;;;;;;;1752801;28;20202;-75
2023/07/22 04:48:36;;;;;;;0.00;0.00;;;;;;;;;;1752333;28;20519;-75
2023/07/22 04:49:27;;;;;;;0.00;0.00;;;;;;;;;;1752999;28;20324;-75
2023/07/22 04:50:19;;;;;;;0.00;0.00;;;;;;;;;;1751092;28;20251;-75
2023/07/22 04:51:11;;;;;;;0.00;0.00;;;;;;;;;;1753953;28;20616;-74
2023/07/22 04:52:02;;;;;;;0.00;0.00;;;;;;;;;;1752794;28;20656;-74
2023/07/22 04:52:54;;;;;;;0.00;0.00;;;;;;;;;;1753975;28;20352;-74
2023/07/22 04:53:45;;;;;;;0.00;0.00;;;;;;;;;;1752253;28;22034;-74
2023/07/22 04:54:36;;;;;;;0.00;0.00;;;;;;;;;;1753808;28;20297;-74
2023/07/22 04:55:29;;;;;;;0.00;0.00;;;;;;;;;;1749298;28;20205;-75
2023/07/22 04:56:21;;;;;;;0.00;0.00;;;;;;;;;;1746825;28;20309;-74
2023/07/22 04:57:12;;;;;;;0.00;0.00;;;;;;;;;;1746535;28;20648;-74
2023/07/22 04:58:04;;;;;;;0.00;0.00;;;;;;;;;;1746426;28;20210;-74
2023/07/22 04:58:55;;;;;;;0.00;0.00;;;;;;;;;;1746260;28;20281;-74
2023/07/22 04:59:47;;;;;;;0.00;0.00;;;;;;;;;;1746688;28;20202;-75
2023/07/22 05:00:38;;;;;;;0.00;0.00;;;;;;;;;;1745150;28;20659;-75
2023/07/22 05:01:30;;;;;;;0.00;0.00;;;;;;;;;;1746770;28;20229;-74
2023/07/22 05:02:23;;;;;;;0.00;0.00;;;;;;;;;;1746158;28;20676;-74
2023/07/22 05:03:14;;;;;;;0.00;0.00;;;;;;;;;;1746940;28;20719;-74
2023/07/22 05:04:06;;;;;;;0.00;0.00;;;;;;;;;;1746108;28;20201;-74
2023/07/22 05:04:58;;;;;;;0.00;0.00;;;;;;;;;;1746741;28;20636;-74
2023/07/22 05:05:49;;;;;;;0.00;0.00;;;;;;;;;;1744572;28;20324;-73
2023/07/22 05:06:41;;;;;;;0.00;0.00;;;;;;;;;;1746541;28;20213;-73
2023/07/22 05:07:32;;;;;;;0.00;0.00;;;;;;;;;;1746179;28;20317;-73
2023/07/22 05:08:23;;;;;;;0.00;0.00;;;;;;;;;;1746494;28;20285;-73
2023/07/22 05:09:15;;;;;;;0.00;0.00;;;;;;;;;;1746324;28;20202;-73
2023/07/22 05:10:07;;;;;;;0.00;0.00;;;;;;;;;;1746783;28;20630;-74
2023/07/22 05:10:59;;;;;;;0.00;0.00;;;;;;;;;;1744158;28;20287;-74